Weather History for Soldotna, AK

Change the Weather History Date:

Friday, February 7, 2014

  Actual Average Record
Temperature  
Mean Temperature 26 °F -  
Max Temperature 28 °F 26 °F 43 °F (1971)
Min Temperature 23 °F 11 °F -33 °F (1990)
Degree Days  
Heating Degree Days 40    
Moisture  
Dew Point 6 °F    
Average Humidity 43    
Maximum Humidity 51    
Minimum Humidity 37    
Precipitation  
Precipitation 0.00 in - - ()
Sea Level Pressure  
Sea Level Pressure 29.79 in    
Wind  
Wind Speed 19 mph (NNE)    
Max Wind Speed 28 mph    
Max Gust Speed 43 mph    
Visibility 10 miles    
Events      
Averages and records for this station are not official NWS values.
T = Trace of Precipitation, MM = Missing Value Source: NWS Daily Summary

Daily Weather History Graph

Daily Weather History Graph

Search for Another Location

Airport:

Trip Planner

Search our weather history database for the weather conditions in past years. The results will help you decide how hot, cold, wet, or windy it might be!

Date:

Astronomy

Feb. 07, 2014 Rise Set
Actual Time 9:04 AM AKST 5:32 PM AKST
Civil Twilight 8:18 AM AKST 6:19 PM AKST
Nautical Twilight 7:27 AM AKST 7:09 PM AKST
Astronomical Twilight 6:39 AM AKST 7:58 PM AKST
Moon 11:30 AM AKST (2/7) 3:48 AM AKST (2/7)
Length of Visible Light 10h 00m
Length of Day
8h 28m
First Quarter, 60% of the Moon is Illuminated
Feb 7
First Quarter
Feb 14
Full
Feb 22
Last Quarter
Feb 28
New
Mar 8
First Quarter

Hourly Weather History & Observations

Time (AKST) Temp. Windchill Dew Point Humidity Pressure Visibility Wind Dir Wind Speed Gust Speed Precip Events Conditions
12:16 AM 26.6 °F 13.4 °F 10.4 °F 51% 29.70 in 3.0 mi NNE 18.4 mph 33.4 mph N/A   Overcast
12:36 AM 26.6 °F 13.1 °F 6.8 °F 43% 29.69 in 3.0 mi NNE 19.6 mph 42.6 mph N/A   Overcast
12:56 AM 26.6 °F 13.1 °F 5.0 °F 40% 29.69 in 9.0 mi North 19.6 mph 40.3 mph N/A   Overcast
1:16 AM 26.6 °F 12.7 °F 5.0 °F 40% 29.70 in 10.0 mi NNE 20.7 mph 41.4 mph N/A   Overcast
1:36 AM 26.6 °F 12.4 °F 5.0 °F 40% 29.70 in 10.0 mi NNE 21.9 mph 33.4 mph N/A   Overcast
1:56 AM 24.8 °F 10.7 °F 3.2 °F 40% 29.70 in 10.0 mi NNE 19.6 mph 42.6 mph N/A   Overcast
2:16 AM 24.8 °F 9.0 °F 3.2 °F 40% 29.69 in 10.0 mi North 25.3 mph 38.0 mph N/A   Overcast
2:36 AM 24.8 °F 10.3 °F 3.2 °F 40% 29.68 in 10.0 mi NNE 20.7 mph 32.2 mph N/A   Overcast
2:56 AM 24.8 °F 11.9 °F 3.2 °F 40% 29.68 in 10.0 mi NNE 16.1 mph 35.7 mph N/A   Overcast
3:16 AM 24.8 °F 11.1 °F 3.2 °F 40% 29.67 in 10.0 mi North 18.4 mph 29.9 mph N/A   Mostly Cloudy
3:36 AM 24.8 °F 10.7 °F 3.2 °F 40% 29.68 in 10.0 mi NNE 19.6 mph 33.4 mph N/A   Scattered Clouds
3:56 AM 23.0 °F 11.7 °F 3.2 °F 43% 29.66 in 10.0 mi North 11.5 mph 29.9 mph N/A   Scattered Clouds
4:16 AM 23.0 °F 8.3 °F 3.2 °F 43% 29.66 in 10.0 mi NNE 19.6 mph 34.5 mph N/A   Scattered Clouds
4:36 AM 23.0 °F 11.1 °F 5.0 °F 46% 29.65 in 10.0 mi NNE 12.7 mph 25.3 mph N/A   Mostly Cloudy
4:56 AM 23.0 °F 10.1 °F 5.0 °F 46% 29.65 in 10.0 mi North 15.0 mph 24.2 mph N/A   Overcast
5:16 AM 23.0 °F 8.7 °F 3.2 °F 43% 29.66 in 10.0 mi NNE 18.4 mph 29.9 mph N/A   Overcast
5:36 AM 24.8 °F 10.3 °F 5.0 °F 43% 29.64 in 10.0 mi North 20.7 mph 33.4 mph N/A   Overcast
5:56 AM 24.8 °F 11.9 °F 3.2 °F 40% 29.64 in 10.0 mi NNE 16.1 mph 31.1 mph N/A   Overcast
6:16 AM 24.8 °F 11.1 °F 3.2 °F 40% 29.64 in 10.0 mi North 18.4 mph 32.2 mph N/A   Overcast
6:36 AM 24.8 °F 11.5 °F 5.0 °F 43% 29.65 in 10.0 mi NNE 17.3 mph 29.9 mph N/A   Overcast
6:56 AM 24.8 °F 11.1 °F 5.0 °F 43% 29.64 in 10.0 mi NNE 18.4 mph 39.1 mph N/A   Mostly Cloudy
7:16 AM 24.8 °F 10.7 °F 5.0 °F 43% 29.64 in 10.0 mi NNE 19.6 mph 36.8 mph N/A   Mostly Cloudy
7:36 AM 24.8 °F 11.1 °F 5.0 °F 43% 29.66 in 10.0 mi NNE 18.4 mph 33.4 mph N/A   Partly Cloudy
7:56 AM 24.8 °F 10.0 °F 3.2 °F 40% 29.66 in 10.0 mi North 21.9 mph 34.5 mph N/A   Clear
8:16 AM 24.8 °F 11.1 °F 3.2 °F 40% 29.67 in 10.0 mi North 18.4 mph 35.7 mph N/A   Scattered Clouds
8:36 AM 24.8 °F 11.5 °F 3.2 °F 40% 29.68 in 10.0 mi NNE 17.3 mph 34.5 mph N/A   Mostly Cloudy
8:56 AM 24.8 °F 10.7 °F 3.2 °F 40% 29.68 in 10.0 mi NNE 19.6 mph 33.4 mph N/A   Overcast
9:16 AM 24.8 °F 10.0 °F 3.2 °F 40% 29.69 in 10.0 mi North 21.9 mph 33.4 mph N/A   Overcast
9:36 AM 24.8 °F 11.1 °F 3.2 °F 40% 29.69 in 10.0 mi NNE 18.4 mph 32.2 mph N/A   Overcast
9:56 AM 24.8 °F 11.5 °F 3.2 °F 40% 29.70 in 10.0 mi North 17.3 mph 35.7 mph N/A   Overcast
10:16 AM 24.8 °F 10.7 °F 3.2 °F 40% 29.71 in 10.0 mi NNE 19.6 mph 35.7 mph N/A   Partly Cloudy
10:36 AM 24.8 °F 9.6 °F 5.0 °F 43% 29.72 in 10.0 mi NNE 23.0 mph 33.4 mph N/A   Mostly Cloudy
10:56 AM 24.8 °F 11.5 °F 3.2 °F 40% 29.72 in 10.0 mi NNE 17.3 mph 32.2 mph N/A   Mostly Cloudy
11:16 AM 24.8 °F 10.3 °F 5.0 °F 43% 29.73 in 10.0 mi NNE 20.7 mph 39.1 mph N/A   Scattered Clouds
11:36 AM 26.6 °F 11.7 °F 3.2 °F 37% 29.73 in 10.0 mi NNE 24.2 mph 38.0 mph N/A   Clear
11:56 AM 26.6 °F 12.4 °F 5.0 °F 40% 29.73 in 10.0 mi NNE 21.9 mph 40.3 mph N/A   Scattered Clouds
12:16 PM 26.6 °F 11.4 °F 5.0 °F 40% 29.75 in 10.0 mi NNE 25.3 mph 36.8 mph N/A   Overcast
12:36 PM 26.6 °F 11.4 °F 3.2 °F 37% 29.75 in 10.0 mi NNE 25.3 mph 40.3 mph N/A   Overcast
12:56 PM 26.6 °F 12.0 °F 5.0 °F 40% 29.75 in 10.0 mi NNE 23.0 mph 38.0 mph N/A   Scattered Clouds
1:16 PM 26.6 °F 11.1 °F 5.0 °F 40% 29.76 in 10.0 mi NNE 26.5 mph 41.4 mph N/A   Clear
1:36 PM 26.6 °F 12.0 °F 5.0 °F 40% 29.75 in 10.0 mi NNE 23.0 mph 31.1 mph N/A   Clear
1:56 PM 26.6 °F 10.8 °F 5.0 °F 40% 29.76 in 10.0 mi NNE 27.6 mph 42.6 mph N/A   Clear
2:16 PM 26.6 °F 12.4 °F 6.8 °F 43% 29.77 in 10.0 mi NNE 21.9 mph 39.1 mph N/A   Clear
2:36 PM 26.6 °F 13.8 °F 6.8 °F 43% 29.76 in 10.0 mi NNE 17.3 mph 33.4 mph N/A   Clear
2:56 PM 26.6 °F 13.1 °F 6.8 °F 43% 29.78 in 10.0 mi NNE 19.6 mph 33.4 mph N/A   Clear
3:16 PM 28.4 °F 14.7 °F 6.8 °F 40% 29.80 in 10.0 mi NNE 21.9 mph 34.5 mph N/A   Clear
3:36 PM 28.4 °F 14.7 °F 6.8 °F 40% 29.80 in 10.0 mi NNE 21.9 mph 36.8 mph N/A   Clear
3:56 PM 28.4 °F 16.2 °F 6.8 °F 40% 29.81 in 10.0 mi NNE 17.3 mph 35.7 mph N/A   Clear
4:16 PM 28.4 °F 16.2 °F 8.6 °F 43% 29.82 in 10.0 mi NNE 17.3 mph 32.2 mph N/A   Clear
4:36 PM 28.4 °F 15.1 °F 8.6 °F 43% 29.83 in 10.0 mi NE 20.7 mph 28.8 mph N/A   Clear
4:56 PM 28.4 °F 15.4 °F 8.6 °F 43% 29.84 in 10.0 mi NNE 19.6 mph 28.8 mph N/A   Clear
5:16 PM 26.6 °F 15.2 °F 8.6 °F 47% 29.85 in 10.0 mi NNE 13.8 mph 29.9 mph N/A   Clear
5:36 PM 26.6 °F 13.8 °F 8.6 °F 47% 29.86 in 10.0 mi NNE 17.3 mph 28.8 mph N/A   Clear
5:56 PM 26.6 °F 14.3 °F 8.6 °F 47% 29.88 in 10.0 mi NNE 16.1 mph 26.5 mph N/A   Clear
6:16 PM 26.6 °F 14.7 °F 8.6 °F 47% 29.89 in 10.0 mi NNE 15.0 mph 23.0 mph N/A   Clear
6:36 PM 26.6 °F 14.3 °F 8.6 °F 47% 29.91 in 10.0 mi NE 16.1 mph 34.5 mph N/A   Clear
6:56 PM 26.6 °F 14.7 °F 8.6 °F 47% 29.92 in 10.0 mi NNE 15.0 mph 28.8 mph N/A   Clear
7:16 PM 26.6 °F 14.7 °F 8.6 °F 47% 29.94 in 10.0 mi NE 15.0 mph 24.2 mph N/A   Clear
7:36 PM 26.6 °F 13.8 °F 8.6 °F 47% 29.95 in 10.0 mi NNE 17.3 mph 28.8 mph N/A   Clear
7:56 PM 26.6 °F 15.2 °F 8.6 °F 47% 29.96 in 10.0 mi NE 13.8 mph 26.5 mph N/A   Clear
8:16 PM 26.6 °F 13.8 °F 8.6 °F 47% 29.98 in 10.0 mi NNE 17.3 mph 23.0 mph N/A   Clear
8:36 PM 26.6 °F 14.3 °F 8.6 °F 47% 29.98 in 10.0 mi NE 16.1 mph 21.9 mph N/A   Clear
8:56 PM 26.6 °F 17.5 °F 8.6 °F 47% 30.00 in 10.0 mi NE 9.2 mph 23.0 mph N/A   Clear
9:16 PM 26.6 °F 15.2 °F 8.6 °F 47% 30.01 in 10.0 mi NE 13.8 mph 20.7 mph N/A   Clear
9:36 PM 26.6 °F 16.8 °F 8.6 °F 47% 30.02 in 10.0 mi NE 10.4 mph 18.4 mph N/A   Clear
9:56 PM 26.6 °F 17.5 °F 8.6 °F 47% 30.03 in 10.0 mi NE 9.2 mph 19.6 mph N/A   Clear
10:16 PM 26.6 °F 13.8 °F 8.6 °F 47% 30.04 in 10.0 mi NE 17.3 mph 21.9 mph N/A   Clear
10:36 PM 26.6 °F 14.3 °F 8.6 °F 47% 30.03 in 10.0 mi NE 16.1 mph 23.0 mph N/A   Clear
10:56 PM 26.6 °F 15.2 °F 8.6 °F 47% 30.05 in 10.0 mi NE 13.8 mph 20.7 mph N/A   Clear
11:16 PM 26.6 °F 16.2 °F 6.8 °F 43% 30.05 in 10.0 mi NE 11.5 mph 24.2 mph N/A   Clear
11:36 PM 24.8 °F 12.4 °F 8.6 °F 50% 30.06 in 10.0 mi NE 15.0 mph 23.0 mph N/A   Clear
11:56 PM 24.8 °F 12.4 °F 8.6 °F 50% 30.07 in 10.0 mi NE 15.0 mph 21.9 mph N/A   Clear